createdAt,value
2022-08-10T00:00:10.063Z,1.33
2022-08-10T00:02:36.667Z,1.50
2022-08-10T00:05:03.715Z,1.15
2022-08-10T00:07:30.295Z,1.40
2022-08-10T00:09:56.881Z,1.48
2022-08-10T00:12:23.463Z,1.73
2022-08-10T00:15:10.820Z,1.35
2022-08-10T00:17:57.426Z,1.50
2022-08-10T00:20:24.079Z,1.83
2022-08-10T00:22:57.379Z,1.60
2022-08-10T00:25:24.375Z,1.60
2022-08-10T00:28:02.596Z,1.48
2022-08-10T00:30:30.649Z,1.60
2022-08-10T00:32:57.191Z,1.30
2022-08-10T00:35:23.680Z,1.40
2022-08-10T00:37:56.147Z,1.13
2022-08-10T00:40:37.573Z,1.83
2022-08-10T00:43:06.698Z,1.60
2022-08-10T00:45:35.926Z,1.75
2022-08-10T00:48:02.449Z,1.75
2022-08-10T00:50:29.381Z,1.70
2022-08-10T00:52:56.036Z,1.60
2022-08-10T00:55:22.624Z,1.50
2022-08-10T00:57:54.851Z,1.50
2022-08-10T01:00:22.678Z,1.50
2022-08-10T01:02:49.295Z,2.03
2022-08-10T01:05:16.047Z,1.95
2022-08-10T01:08:01.295Z,1.80
2022-08-10T01:10:27.763Z,1.70
2022-08-10T01:12:57.389Z,2.05
2022-08-10T01:15:47.639Z,2.08
2022-08-10T01:18:14.130Z,1.70
2022-08-10T01:20:40.690Z,2.15
2022-08-10T01:23:25.982Z,2.00
2022-08-10T01:26:31.490Z,2.13
2022-08-10T01:28:57.981Z,1.98
2022-08-10T01:31:27.873Z,1.80
2022-08-10T01:33:58.418Z,2.00
2022-08-10T01:36:32.066Z,1.83
2022-08-10T01:39:01.466Z,1.70
2022-08-10T01:41:45.682Z,2.13
2022-08-10T01:44:19.881Z,2.30
2022-08-10T01:46:48.868Z,2.08
2022-08-10T01:49:23.824Z,2.20
2022-08-10T01:51:52.750Z,2.35
2022-08-10T01:54:21.071Z,1.63
2022-08-10T01:56:51.351Z,1.90
2022-08-10T01:59:29.114Z,2.13
2022-08-10T02:01:59.330Z,2.00
2022-08-10T02:04:26.746Z,1.80
2022-08-10T02:06:54.030Z,2.00
2022-08-10T02:09:23.713Z,1.75
2022-08-10T02:12:05.673Z,2.15
2022-08-10T02:14:44.981Z,1.80
2022-08-10T02:18:00.250Z,2.22
2022-08-10T02:20:07.293Z,2.30
2022-08-10T02:22:36.901Z,2.10
2022-08-10T02:25:06.012Z,2.15
2022-08-10T02:27:33.461Z,2.30
2022-08-10T02:30:00.624Z,2.22
2022-08-10T02:32:35.916Z,1.90
2022-08-10T02:35:04.235Z,2.30
2022-08-10T02:37:31.250Z,2.20
2022-08-10T02:39:57.832Z,2.33
2022-08-10T02:45:23.149Z,2.33
2022-08-10T02:45:30.758Z,2.03
2022-08-10T02:48:01.387Z,2.35
2022-08-10T02:50:35.062Z,2.15
2022-08-10T02:53:54.723Z,2.30
2022-08-10T02:56:08.173Z,2.67
2022-08-10T02:58:42.841Z,2.60
2022-08-10T03:01:11.986Z,2.55
2022-08-10T03:03:41.356Z,2.50
2022-08-10T03:06:10.573Z,2.58
2022-08-10T03:08:40.852Z,2.95
2022-08-10T03:11:07.998Z,2.42
2022-08-10T03:13:35.669Z,2.42
2022-08-10T03:16:03.721Z,2.85
2022-08-10T03:18:30.554Z,2.78
2022-08-10T03:20:57.673Z,2.88
2022-08-10T03:23:25.211Z,2.80
2022-08-10T03:25:54.594Z,3.13
2022-08-10T03:28:23.195Z,2.90
2022-08-10T03:30:49.955Z,3.17
2022-08-10T03:33:18.192Z,2.92
2022-08-10T03:36:43.262Z,3.22
2022-08-10T03:38:31.427Z,3.33
2022-08-10T03:41:00.013Z,3.53
2022-08-10T03:43:27.318Z,3.42
2022-08-10T03:45:56.553Z,2.70
2022-08-10T03:48:32.139Z,3.15
2022-08-10T03:51:12.447Z,3.20
2022-08-10T03:54:05.427Z,3.53
2022-08-10T03:56:27.315Z,3.33
2022-08-10T03:58:57.282Z,3.40
2022-08-10T04:02:41.943Z,3.28
2022-08-10T04:04:13.010Z,2.97
2022-08-10T04:06:41.327Z,3.33
2022-08-10T04:09:07.880Z,3.28
2022-08-10T04:11:34.488Z,3.10
2022-08-10T04:14:01.034Z,3.50
2022-08-10T04:16:27.618Z,3.80
2022-08-10T04:18:54.125Z,3.47
2022-08-10T04:21:26.911Z,3.08
2022-08-10T04:23:53.802Z,3.42
2022-08-10T04:26:20.493Z,3.55
2022-08-10T04:28:49.260Z,3.22
2022-08-10T04:31:16.933Z,3.40
2022-08-10T04:33:46.981Z,3.65
2022-08-10T04:36:14.075Z,3.47
2022-08-10T04:38:41.722Z,3.25
2022-08-10T04:41:09.036Z,3.60
2022-08-10T04:43:36.045Z,3.63
2022-08-10T04:46:02.510Z,3.30
2022-08-10T04:48:42.118Z,3.20
2022-08-10T04:51:17.601Z,3.67
2022-08-10T04:54:03.957Z,3.63
2022-08-10T04:56:32.382Z,3.38
2022-08-10T04:58:59.735Z,3.60
2022-08-10T05:01:26.576Z,3.80
2022-08-10T05:04:33.793Z,3.40
2022-08-10T05:06:39.783Z,3.80
2022-08-10T05:09:06.316Z,4.00
2022-08-10T05:11:32.884Z,3.78
2022-08-10T05:14:00.587Z,3.80
2022-08-10T05:16:32.144Z,4.20
2022-08-10T05:18:59.238Z,4.30
2022-08-10T05:22:03.344Z,4.20
2022-08-10T05:24:12.292Z,4.30
2022-08-10T05:26:55.174Z,3.42
2022-08-10T05:29:25.357Z,3.35
2022-08-10T05:31:51.931Z,3.83
2022-08-10T05:34:20.810Z,4.03
2022-08-10T05:36:47.976Z,3.50
2022-08-10T05:39:15.058Z,3.38
2022-08-10T05:41:46.040Z,3.90
2022-08-10T05:44:14.614Z,3.50
2022-08-10T05:46:41.466Z,3.58
2022-08-10T05:49:07.960Z,3.35
2022-08-10T05:51:34.556Z,3.55
2022-08-10T05:54:06.212Z,3.30
2022-08-10T05:56:55.442Z,3.75
2022-08-10T06:00:11.101Z,4.28
2022-08-10T06:02:31.236Z,3.65
2022-08-10T06:05:04.879Z,3.58
2022-08-10T06:07:31.614Z,3.60
2022-08-10T06:10:00.674Z,3.47
2022-08-10T06:12:31.298Z,3.85
2022-08-10T06:15:05.380Z,3.83
2022-08-10T06:17:32.771Z,3.80
2022-08-10T06:20:00.211Z,3.50
2022-08-10T06:22:27.932Z,3.53
2022-08-10T06:25:23.085Z,3.45
2022-08-10T06:27:43.889Z,3.50
2022-08-10T06:30:20.045Z,3.55
2022-08-10T06:32:49.257Z,3.45
2022-08-10T06:35:16.580Z,3.45
2022-08-10T06:37:51.727Z,3.28
2022-08-10T06:40:19.741Z,3.28
2022-08-10T06:42:50.098Z,2.92
2022-08-10T06:45:18.492Z,3.15
2022-08-10T06:47:47.389Z,3.72
2022-08-10T06:50:17.428Z,3.17
2022-08-10T06:53:03.095Z,3.13
2022-08-10T06:55:50.103Z,3.08
2022-08-10T06:58:20.675Z,3.20
2022-08-10T07:00:53.519Z,3.17
2022-08-10T07:03:21.167Z,3.40
2022-08-10T07:05:51.324Z,3.00
2022-08-10T07:08:19.771Z,3.63
2022-08-10T07:10:47.415Z,3.10
2022-08-10T07:14:15.317Z,3.00
2022-08-10T07:16:05.698Z,3.58
2022-08-10T07:18:33.407Z,3.25
2022-08-10T07:21:01.979Z,2.80
2022-08-10T07:23:57.306Z,2.80
2022-08-10T07:26:16.756Z,3.05
2022-08-10T07:28:47.972Z,3.22
2022-08-10T07:31:34.917Z,3.13
2022-08-10T07:34:07.900Z,2.90
2022-08-10T07:36:35.999Z,2.83
2022-08-10T07:39:04.942Z,2.70
2022-08-10T07:41:33.297Z,2.80
2022-08-10T07:44:02.982Z,3.00
2022-08-10T07:46:29.888Z,3.08
2022-08-10T07:49:19.430Z,3.53
2022-08-10T07:51:47.430Z,3.28
2022-08-10T07:54:22.398Z,3.25
2022-08-10T07:56:51.566Z,3.03
2022-08-10T07:59:20.381Z,3.33
2022-08-10T08:01:50.329Z,2.60
2022-08-10T08:04:18.280Z,3.15
2022-08-10T08:06:45.522Z,2.63
2022-08-10T08:09:12.216Z,2.90
2022-08-10T08:11:41.469Z,2.90
2022-08-10T08:14:08.728Z,3.33
2022-08-10T08:16:36.606Z,2.65
2022-08-10T08:19:26.534Z,2.90
2022-08-10T08:24:09.203Z,2.90
2022-08-10T08:24:38.774Z,2.80
2022-08-10T08:27:06.290Z,3.00
2022-08-10T08:29:37.126Z,2.95
2022-08-10T08:32:04.614Z,3.20
2022-08-10T08:34:36.309Z,3.10
2022-08-10T08:37:03.619Z,3.05
2022-08-10T08:39:31.878Z,3.08
2022-08-10T08:42:10.983Z,3.20
2022-08-10T08:44:50.326Z,2.80
2022-08-10T08:48:05.712Z,2.45
2022-08-10T08:50:24.482Z,2.70
2022-08-10T08:53:03.425Z,2.70
2022-08-10T08:55:56.062Z,2.72
2022-08-10T08:58:28.666Z,2.70
2022-08-10T09:01:01.471Z,2.90
2022-08-10T09:03:28.634Z,2.28
2022-08-10T09:06:14.071Z,2.83
2022-08-10T09:08:40.593Z,2.70
2022-08-10T09:11:19.478Z,2.50
2022-08-10T09:13:54.768Z,2.65
2022-08-10T09:16:26.058Z,2.75
2022-08-10T09:18:52.607Z,2.75
2022-08-10T09:21:28.460Z,2.72
2022-08-10T09:24:15.476Z,2.95
2022-08-10T09:26:49.287Z,3.00
2022-08-10T09:29:19.540Z,2.50
2022-08-10T09:31:55.854Z,2.75
2022-08-10T09:36:25.759Z,2.35
2022-08-10T09:38:11.142Z,2.95
2022-08-10T09:41:00.369Z,2.63
2022-08-10T09:43:42.678Z,2.80
2022-08-10T09:46:33.314Z,2.50
2022-08-10T09:49:17.412Z,2.53
2022-08-10T09:51:51.151Z,2.60
2022-08-10T09:54:17.666Z,2.40
2022-08-10T09:56:44.160Z,2.50
2022-08-10T09:59:26.973Z,2.30
2022-08-10T10:02:17.716Z,2.55
2022-08-10T10:04:59.525Z,2.50
2022-08-10T10:07:27.286Z,2.80
2022-08-10T10:09:58.111Z,2.40
2022-08-10T10:12:45.111Z,2.60
2022-08-10T10:15:24.377Z,2.88
2022-08-10T10:18:08.119Z,2.58
2022-08-10T10:20:40.945Z,2.58
2022-08-10T10:23:13.366Z,2.42
2022-08-10T10:25:51.176Z,2.08
2022-08-10T10:28:24.483Z,2.67
2022-08-10T10:31:19.389Z,2.38
2022-08-10T10:34:05.119Z,2.40
2022-08-10T10:36:32.614Z,2.45
2022-08-10T10:39:00.039Z,2.65
2022-08-10T10:42:03.823Z,2.55
2022-08-10T10:44:31.310Z,2.45
2022-08-10T10:47:10.117Z,2.38
2022-08-10T10:49:39.909Z,2.50
2022-08-10T10:52:12.781Z,2.25
2022-08-10T10:54:58.122Z,2.70
2022-08-10T10:57:59.227Z,2.70
2022-08-10T11:00:18.358Z,2.33
2022-08-10T11:02:51.007Z,2.55
2022-08-10T11:05:23.260Z,2.40
2022-08-10T11:07:57.393Z,2.58
2022-08-10T11:10:47.670Z,2.47
2022-08-10T11:14:26.970Z,2.47
2022-08-10T11:16:23.977Z,2.30
2022-08-10T11:18:56.402Z,2.67
2022-08-10T11:21:44.074Z,2.15
2022-08-10T11:24:48.366Z,2.50
2022-08-10T11:27:34.047Z,2.20
2022-08-10T11:30:08.279Z,2.92
2022-08-10T11:32:52.959Z,2.75
2022-08-10T11:35:31.581Z,2.72
2022-08-10T11:38:31.085Z,2.60
2022-08-10T11:40:53.287Z,2.78
2022-08-10T11:43:22.718Z,2.50
2022-08-10T11:46:28.046Z,2.47
2022-08-10T11:49:13.156Z,2.38
2022-08-10T11:51:48.997Z,2.65
2022-08-10T11:54:29.307Z,2.40
2022-08-10T11:57:02.226Z,2.88
2022-08-10T11:59:58.523Z,2.42
2022-08-10T12:02:37.302Z,2.40
2022-08-10T12:05:43.136Z,2.88
2022-08-10T12:10:03.549Z,2.78
2022-08-10T12:11:01.997Z,2.85
2022-08-10T12:13:37.465Z,2.65
2022-08-10T12:16:06.414Z,2.72
2022-08-10T12:18:36.390Z,2.40
2022-08-10T12:21:05.402Z,2.70
2022-08-10T12:23:47.616Z,2.53
2022-08-10T12:26:36.042Z,2.67
2022-08-10T12:29:25.174Z,2.47
2022-08-10T12:31:57.773Z,2.95
2022-08-10T12:34:34.544Z,2.78
2022-08-10T12:37:22.192Z,2.72
2022-08-10T12:40:23.980Z,2.40
2022-08-10T12:44:04.620Z,2.45
2022-08-10T12:46:09.938Z,2.67
2022-08-10T12:48:41.214Z,2.80
2022-08-10T12:51:14.731Z,2.30
2022-08-10T12:53:48.419Z,2.92
2022-08-10T12:56:23.237Z,2.95
2022-08-10T12:58:59.304Z,2.75
2022-08-10T13:02:09.902Z,2.60
2022-08-10T13:04:25.445Z,2.63
2022-08-10T13:06:53.211Z,2.67
2022-08-10T13:09:25.159Z,2.90
2022-08-10T13:12:36.686Z,2.78
2022-08-10T13:14:55.067Z,2.90
2022-08-10T13:17:25.029Z,2.65
2022-08-10T13:20:14.002Z,2.72
2022-08-10T13:22:44.419Z,2.50
2022-08-10T13:25:12.628Z,2.65
2022-08-10T13:28:00.763Z,2.33
2022-08-10T13:30:37.209Z,2.67
2022-08-10T13:33:05.293Z,2.67
2022-08-10T13:35:34.564Z,2.25
2022-08-10T13:38:03.653Z,3.17
2022-08-10T13:40:31.368Z,3.00
2022-08-10T13:42:59.629Z,2.92
2022-08-10T13:45:27.502Z,3.05
2022-08-10T13:48:14.309Z,2.55
2022-08-10T13:50:41.775Z,2.50
2022-08-10T13:53:14.394Z,2.80
2022-08-10T13:55:55.553Z,2.40
2022-08-10T13:58:39.502Z,2.50
2022-08-10T14:01:12.186Z,2.75
2022-08-10T14:03:39.944Z,2.58
2022-08-10T14:06:07.495Z,2.60
2022-08-10T14:08:35.433Z,2.60
2022-08-10T14:11:11.424Z,2.58
2022-08-10T14:13:42.199Z,2.47
2022-08-10T14:16:10.805Z,2.55
2022-08-10T14:18:38.637Z,2.75
2022-08-10T14:21:05.914Z,2.78
2022-08-10T14:23:33.361Z,2.55
2022-08-10T14:26:06.546Z,2.38
2022-08-10T14:28:37.464Z,2.40
2022-08-10T14:31:06.718Z,2.30
2022-08-10T14:33:39.113Z,2.75
2022-08-10T14:36:21.251Z,2.65
2022-08-10T14:38:52.932Z,2.78
2022-08-10T14:42:00.830Z,2.63
2022-08-10T14:44:13.230Z,2.53
2022-08-10T14:46:44.473Z,2.30
2022-08-10T14:49:25.256Z,2.80
2022-08-10T14:51:57.840Z,2.05
2022-08-10T14:54:28.953Z,2.58
2022-08-10T14:56:56.890Z,2.30
2022-08-10T15:00:26.237Z,2.60
2022-08-10T15:02:38.530Z,2.78
2022-08-10T15:05:04.435Z,2.40
2022-08-10T15:07:36.378Z,2.40
2022-08-10T15:10:04.771Z,2.70
2022-08-10T15:12:40.948Z,2.30
2022-08-10T15:15:11.149Z,2.30
2022-08-10T15:17:48.142Z,2.28
2022-08-10T15:20:25.510Z,2.10
2022-08-10T15:22:58.800Z,1.90
2022-08-10T15:25:27.340Z,2.17
2022-08-10T15:28:04.273Z,2.65
2022-08-10T15:30:38.597Z,2.30
2022-08-10T15:34:03.820Z,2.15
2022-08-10T15:36:34.960Z,2.10
2022-08-10T15:39:03.479Z,1.80
2022-08-10T15:41:58.174Z,1.95
2022-08-10T15:44:47.174Z,2.10
2022-08-10T15:47:17.075Z,2.10
2022-08-10T15:49:55.085Z,2.42
2022-08-10T15:52:38.827Z,2.08
2022-08-10T15:55:44.144Z,2.70
2022-08-10T15:58:39.317Z,2.30
2022-08-10T16:02:14.855Z,2.20
2022-08-10T16:04:31.742Z,2.35
2022-08-10T16:07:02.240Z,2.40
2022-08-10T16:10:26.831Z,1.90
2022-08-10T16:12:29.945Z,2.72
2022-08-10T16:15:00.852Z,1.80
2022-08-10T16:17:28.229Z,2.15
2022-08-10T16:19:56.945Z,1.95
2022-08-10T16:22:35.289Z,1.80
2022-08-10T16:25:11.503Z,1.80
2022-08-10T16:27:46.152Z,1.83
2022-08-10T16:30:13.555Z,1.88
2022-08-10T16:32:40.695Z,1.83
2022-08-10T16:35:10.240Z,1.50
2022-08-10T16:37:57.908Z,1.70
2022-08-10T16:40:27.256Z,1.80
2022-08-10T16:42:54.122Z,1.88
2022-08-10T16:45:24.170Z,1.80
2022-08-10T16:47:54.997Z,1.88
2022-08-10T16:50:24.794Z,2.03
2022-08-10T16:52:54.682Z,1.80
2022-08-10T16:55:27.072Z,2.00
2022-08-10T16:58:12.251Z,1.92
2022-08-10T17:00:40.023Z,2.58
2022-08-10T17:03:22.505Z,2.53
2022-08-10T17:06:09.967Z,1.80
2022-08-10T17:08:48.581Z,1.63
2022-08-10T17:11:20.162Z,1.60
2022-08-10T17:13:47.279Z,1.55
2022-08-10T17:16:16.487Z,1.85
2022-08-10T17:18:47.200Z,1.70
2022-08-10T17:21:22.272Z,1.95
2022-08-10T17:23:55.471Z,1.83
2022-08-10T17:26:36.140Z,1.60
2022-08-10T17:29:57.185Z,2.25
2022-08-10T17:32:14.345Z,1.80
2022-08-10T17:34:45.314Z,1.90
2022-08-10T17:37:15.490Z,1.70
2022-08-10T17:39:48.676Z,1.67
2022-08-10T17:42:21.634Z,1.83
2022-08-10T17:44:50.778Z,2.10
2022-08-10T17:47:18.333Z,2.03
2022-08-10T17:49:45.566Z,2.30
2022-08-10T17:52:18.947Z,2.17
2022-08-10T17:54:45.886Z,1.85
2022-08-10T17:57:18.993Z,1.77
2022-08-10T17:59:46.357Z,1.92
2022-08-10T18:02:33.416Z,1.88
2022-08-10T18:05:00.329Z,1.77
2022-08-10T18:07:43.126Z,1.63
2022-08-10T18:10:11.293Z,1.80
2022-08-10T18:12:45.134Z,1.50
2022-08-10T18:15:14.118Z,1.60
2022-08-10T18:17:43.615Z,1.77
2022-08-10T18:20:11.076Z,2.65
2022-08-10T18:22:39.855Z,1.60
2022-08-10T18:25:08.438Z,1.77
2022-08-10T18:28:01.206Z,2.38
2022-08-10T18:30:28.987Z,1.85
2022-08-10T18:32:59.574Z,1.63
2022-08-10T18:35:34.750Z,1.70
2022-08-10T18:38:04.392Z,1.73
2022-08-10T18:40:35.475Z,1.85
2022-08-10T18:44:05.516Z,1.73
2022-08-10T18:45:57.364Z,1.80
2022-08-10T18:48:27.888Z,1.95
2022-08-10T18:50:57.421Z,1.83
2022-08-10T18:53:36.056Z,1.75
2022-08-10T18:56:13.419Z,1.73
2022-08-10T18:59:03.277Z,1.95
2022-08-10T19:01:33.076Z,1.80
2022-08-10T19:04:09.001Z,1.60
2022-08-10T19:06:38.627Z,2.00
2022-08-10T19:09:46.680Z,2.17
2022-08-10T19:12:29.858Z,1.67
2022-08-10T19:15:16.227Z,1.88
2022-08-10T19:18:03.740Z,1.60
2022-08-10T19:20:38.721Z,1.95
2022-08-10T19:23:06.056Z,1.65
2022-08-10T19:26:42.375Z,1.80
2022-08-10T19:28:40.213Z,1.90
2022-08-10T19:31:44.138Z,1.80
2022-08-10T19:34:12.226Z,1.83
2022-08-10T19:36:41.833Z,1.92
2022-08-10T19:39:22.147Z,1.95
2022-08-10T19:41:54.504Z,1.75
2022-08-10T19:44:34.085Z,1.80
2022-08-10T19:47:05.657Z,1.58
2022-08-10T19:49:53.053Z,1.73
2022-08-10T19:52:25.655Z,2.10
2022-08-10T19:55:15.153Z,2.10
2022-08-10T19:57:48.545Z,1.90
2022-08-10T20:00:22.961Z,1.90
2022-08-10T20:03:11.953Z,2.22
2022-08-10T20:06:18.181Z,2.00
2022-08-10T20:08:40.983Z,1.83
2022-08-10T20:11:11.062Z,1.80
2022-08-10T20:14:03.407Z,2.00
2022-08-10T20:16:31.644Z,1.77
2022-08-10T20:19:03.738Z,1.88
2022-08-10T20:21:43.796Z,2.15
2022-08-10T20:24:11.975Z,2.22
2022-08-10T20:27:08.887Z,1.95
2022-08-10T20:29:57.876Z,1.75
2022-08-10T20:32:35.683Z,1.77
2022-08-10T20:35:07.600Z,1.73
2022-08-10T20:38:02.675Z,1.80
2022-08-10T20:40:31.490Z,1.90
2022-08-10T20:43:13.468Z,1.85
2022-08-10T20:46:06.792Z,1.92
2022-08-10T20:48:42.288Z,1.60
2022-08-10T20:51:13.965Z,1.80
2022-08-10T20:53:49.809Z,1.80
2022-08-10T20:56:48.571Z,1.83
2022-08-10T20:59:33.374Z,1.83
2022-08-10T21:02:26.731Z,1.70
2022-08-10T21:05:01.115Z,1.88
2022-08-10T21:08:01.119Z,1.92
2022-08-10T21:10:37.570Z,2.10
2022-08-10T21:13:10.250Z,1.67
2022-08-10T21:15:42.727Z,2.00
2022-08-10T21:18:36.435Z,2.00
2022-08-10T21:21:41.208Z,2.00
2022-08-10T21:24:12.131Z,1.70
2022-08-10T21:26:45.479Z,1.60
2022-08-10T21:29:37.806Z,1.98
2022-08-10T21:32:12.149Z,1.67
2022-08-10T21:34:56.897Z,1.75
2022-08-10T21:37:40.036Z,1.88
2022-08-10T21:40:34.595Z,1.70
2022-08-10T21:43:44.551Z,1.70
2022-08-10T21:46:55.096Z,1.80
2022-08-10T21:50:03.861Z,1.60
2022-08-10T21:53:03.941Z,1.80
2022-08-10T21:56:14.245Z,1.50
2022-08-10T21:59:09.608Z,1.58
2022-08-10T22:02:03.339Z,1.40
2022-08-10T22:04:49.663Z,2.05
2022-08-10T22:07:37.096Z,1.75
2022-08-10T22:10:25.570Z,1.92
2022-08-10T22:13:11.595Z,1.40
2022-08-10T22:16:10.788Z,1.80
2022-08-10T22:19:02.751Z,1.75
2022-08-10T22:21:48.637Z,1.50
2022-08-10T22:24:44.536Z,1.73
2022-08-10T22:27:47.136Z,1.70
2022-08-10T22:30:37.450Z,1.73
2022-08-10T22:33:22.604Z,1.50
2022-08-10T22:36:26.795Z,1.83
2022-08-10T22:40:07.737Z,1.40
2022-08-10T22:42:59.520Z,1.60
2022-08-10T22:45:53.836Z,1.73
2022-08-10T22:48:39.327Z,1.77
2022-08-10T22:51:16.103Z,1.83
2022-08-10T22:54:06.488Z,1.80
2022-08-10T22:56:55.952Z,1.83
2022-08-10T22:59:28.134Z,1.73
2022-08-10T23:02:08.341Z,1.60
2022-08-10T23:04:44.235Z,1.75
2022-08-10T23:07:11.938Z,1.92
2022-08-10T23:09:42.080Z,1.98
2022-08-10T23:12:12.868Z,1.70
2022-08-10T23:14:40.730Z,1.83
2022-08-10T23:18:00.754Z,1.90
2022-08-10T23:20:19.019Z,1.55
2022-08-10T23:22:48.583Z,1.73
2022-08-10T23:25:16.827Z,1.70
2022-08-10T23:27:46.184Z,1.80
2022-08-10T23:30:17.749Z,1.70
2022-08-10T23:32:48.748Z,1.98
2022-08-10T23:36:31.811Z,1.63
2022-08-10T23:38:07.350Z,1.80
2022-08-10T23:40:35.321Z,1.85
2022-08-10T23:43:02.571Z,1.80
2022-08-10T23:45:52.474Z,2.00
2022-08-10T23:48:21.229Z,2.08
2022-08-10T23:50:53.388Z,1.98
2022-08-10T23:53:27.128Z,1.98
2022-08-10T23:55:58.429Z,1.88
2022-08-10T23:58:33.046Z,1.90
